createdAt,value
2023-01-19T00:01:00.155Z,11.03
2023-01-19T00:03:29.466Z,13.62
2023-01-19T00:05:57.586Z,6.12
2023-01-19T00:08:25.257Z,4.17
2023-01-19T00:10:52.951Z,4.72
2023-01-19T00:13:21.587Z,5.55
2023-01-19T00:15:49.000Z,3.55
2023-01-19T00:18:16.853Z,4.85
2023-01-19T00:20:47.968Z,4.72
2023-01-19T00:23:16.459Z,4.12
2023-01-19T00:25:44.206Z,3.20
2023-01-19T00:28:14.551Z,4.35
2023-01-19T00:30:43.094Z,3.45
2023-01-19T00:33:14.854Z,6.70
2023-01-19T00:35:43.113Z,6.75
2023-01-19T00:38:12.057Z,7.45
2023-01-19T00:40:39.512Z,6.47
2023-01-19T00:43:07.260Z,8.28
2023-01-19T00:45:35.414Z,7.30
2023-01-19T00:48:03.211Z,7.25
2023-01-19T00:50:33.028Z,4.33
2023-01-19T00:53:02.011Z,4.90
2023-01-19T00:55:32.140Z,8.33
2023-01-19T00:57:59.903Z,6.08
2023-01-19T01:00:27.506Z,5.85
2023-01-19T01:02:55.250Z,6.65
2023-01-19T01:05:23.177Z,12.05
2023-01-19T01:07:51.059Z,6.40
2023-01-19T01:10:23.252Z,5.92
2023-01-19T01:12:54.966Z,6.33
2023-01-19T01:15:21.546Z,9.80
2023-01-19T01:17:51.377Z,5.87
2023-01-19T01:20:23.223Z,4.58
2023-01-19T01:22:53.386Z,5.85
2023-01-19T01:25:28.771Z,4.45
2023-01-19T01:28:13.708Z,4.45
2023-01-19T01:30:44.323Z,3.60
2023-01-19T01:33:40.791Z,2.70
2023-01-19T01:35:59.961Z,6.60
2023-01-19T01:38:33.799Z,6.87
2023-01-19T01:43:52.417Z,10.72
2023-01-19T01:46:24.304Z,21.62
2023-01-19T01:49:12.930Z,7.03
2023-01-19T01:51:56.019Z,7.58
2023-01-19T01:54:30.131Z,5.85
2023-01-19T01:57:04.639Z,10.05
2023-01-19T01:59:40.032Z,6.58
2023-01-19T02:02:40.369Z,21.75
2023-01-19T02:05:13.498Z,18.48
2023-01-19T02:08:29.808Z,21.42
2023-01-19T02:11:17.155Z,6.67
2023-01-19T02:13:46.716Z,3.83
2023-01-19T02:16:16.320Z,3.92
2023-01-19T02:18:44.902Z,3.83
2023-01-19T02:21:44.621Z,6.00
2023-01-19T02:24:12.816Z,4.92
2023-01-19T02:26:46.957Z,7.70
2023-01-19T02:29:24.672Z,6.42
2023-01-19T02:31:53.548Z,8.00
2023-01-19T02:34:22.497Z,5.22
2023-01-19T02:37:10.922Z,7.22
2023-01-19T02:39:51.987Z,17.20
2023-01-19T02:42:33.860Z,17.05
2023-01-19T02:45:06.527Z,7.12
2023-01-19T02:47:41.660Z,4.62
2023-01-19T02:50:43.072Z,6.22
2023-01-19T02:53:28.353Z,5.62
2023-01-19T02:56:45.069Z,3.72
2023-01-19T02:59:35.163Z,6.70
2023-01-19T03:02:11.343Z,5.15
2023-01-19T03:05:00.372Z,7.35
2023-01-19T03:07:51.904Z,7.08
2023-01-19T03:10:49.487Z,8.65
2023-01-19T03:13:46.770Z,3.70
2023-01-19T03:16:48.082Z,6.65
2023-01-19T03:19:22.989Z,4.40
2023-01-19T03:21:58.158Z,5.03
2023-01-19T03:24:29.505Z,4.17
2023-01-19T03:27:02.197Z,3.47
2023-01-19T03:29:34.417Z,3.72
2023-01-19T03:32:07.130Z,4.00
2023-01-19T03:34:35.894Z,11.18
2023-01-19T03:37:05.232Z,7.15
2023-01-19T03:39:34.051Z,7.53
2023-01-19T03:42:09.310Z,10.40
2023-01-19T03:44:39.722Z,12.75
2023-01-19T03:47:11.632Z,13.93
2023-01-19T03:49:43.426Z,8.55
2023-01-19T03:52:12.368Z,5.90
2023-01-19T03:54:59.641Z,5.75
2023-01-19T03:57:34.735Z,11.65
2023-01-19T04:00:08.456Z,19.15
2023-01-19T04:02:43.357Z,14.95
2023-01-19T04:05:18.280Z,14.43
2023-01-19T04:07:51.720Z,10.88
2023-01-19T04:10:22.964Z,7.30
2023-01-19T04:13:01.718Z,9.28
2023-01-19T04:15:40.823Z,11.48
2023-01-19T04:18:13.541Z,28.40
2023-01-19T04:20:41.450Z,22.05
2023-01-19T04:23:08.931Z,9.20
2023-01-19T04:25:38.148Z,10.20
2023-01-19T04:28:06.449Z,6.60
2023-01-19T04:30:34.044Z,5.17
2023-01-19T04:33:02.816Z,5.92
2023-01-19T04:35:30.857Z,4.90
2023-01-19T04:37:58.480Z,5.92
2023-01-19T04:40:26.309Z,6.90
2023-01-19T04:42:54.129Z,7.15
2023-01-19T04:45:21.952Z,9.25
2023-01-19T04:47:50.862Z,9.68
2023-01-19T04:50:18.788Z,13.53
2023-01-19T04:52:48.524Z,6.37
2023-01-19T04:55:16.759Z,12.93
2023-01-19T04:57:45.118Z,9.10
2023-01-19T05:00:13.595Z,7.92
2023-01-19T05:02:44.753Z,8.25
2023-01-19T05:05:13.107Z,5.95
2023-01-19T05:07:40.923Z,10.82
2023-01-19T05:10:10.873Z,25.45
2023-01-19T05:12:38.782Z,29.45
2023-01-19T05:15:09.153Z,14.13
2023-01-19T05:17:37.331Z,17.37
2023-01-19T05:20:06.694Z,14.40
2023-01-19T05:22:34.599Z,13.83
2023-01-19T05:25:02.364Z,17.62
2023-01-19T05:27:30.054Z,16.35
2023-01-19T05:29:57.738Z,12.90
2023-01-19T05:32:25.476Z,9.88
2023-01-19T05:34:53.098Z,13.65
2023-01-19T05:37:20.715Z,14.50
2023-01-19T05:39:48.393Z,13.72
2023-01-19T05:42:16.682Z,14.65
2023-01-19T05:44:44.461Z,19.77
2023-01-19T05:47:13.302Z,30.48
2023-01-19T05:49:40.905Z,25.72
2023-01-19T05:52:08.395Z,17.17
2023-01-19T05:54:36.054Z,11.85
2023-01-19T05:57:04.370Z,14.20
2023-01-19T05:59:31.893Z,12.95
2023-01-19T06:01:59.376Z,9.73
2023-01-19T06:04:26.972Z,19.80
2023-01-19T06:06:54.465Z,14.38
2023-01-19T06:09:22.205Z,19.82
2023-01-19T06:11:49.835Z,14.63
2023-01-19T06:14:17.371Z,19.90
2023-01-19T06:16:45.508Z,11.70
2023-01-19T06:19:13.254Z,15.28
2023-01-19T06:21:40.941Z,8.20
2023-01-19T06:24:09.824Z,10.95
2023-01-19T06:26:37.585Z,12.20
2023-01-19T06:29:05.283Z,12.73
2023-01-19T06:31:33.168Z,19.27
2023-01-19T06:34:01.116Z,22.87
2023-01-19T06:36:28.707Z,25.85
2023-01-19T06:38:56.218Z,37.23
2023-01-19T06:41:23.872Z,27.45
2023-01-19T06:43:51.683Z,16.62
2023-01-19T06:46:19.127Z,14.33
2023-01-19T06:48:46.728Z,12.90
2023-01-19T06:51:15.210Z,10.75
2023-01-19T06:53:42.929Z,10.75
2023-01-19T06:56:11.334Z,15.23
2023-01-19T06:58:41.656Z,21.00
2023-01-19T07:01:09.995Z,37.80
2023-01-19T07:03:38.188Z,22.13
2023-01-19T07:06:06.855Z,15.10
2023-01-19T07:08:36.781Z,15.13
2023-01-19T07:11:22.211Z,18.75
2023-01-19T07:13:39.913Z,20.80
2023-01-19T07:16:12.431Z,20.48
2023-01-19T07:18:41.010Z,17.95
2023-01-19T07:21:09.158Z,20.77
2023-01-19T07:23:38.031Z,16.48
2023-01-19T07:26:05.976Z,16.45
2023-01-19T07:28:34.114Z,21.05
2023-01-19T07:31:02.782Z,34.05
2023-01-19T07:33:30.643Z,30.37
2023-01-19T07:35:58.138Z,32.20
2023-01-19T07:38:25.695Z,27.90
2023-01-19T07:41:02.083Z,22.90
2023-01-19T07:43:29.838Z,17.37
2023-01-19T07:46:00.241Z,19.67
2023-01-19T07:48:28.553Z,30.43
2023-01-19T07:51:05.052Z,20.95
2023-01-19T07:53:33.111Z,20.65
2023-01-19T07:56:01.011Z,16.50
2023-01-19T07:58:28.946Z,17.12
2023-01-19T08:00:56.786Z,20.10
2023-01-19T08:03:24.801Z,18.00
2023-01-19T08:05:54.312Z,17.35
2023-01-19T08:08:22.003Z,14.73
2023-01-19T08:10:50.851Z,13.93
2023-01-19T08:13:18.923Z,15.23
2023-01-19T08:15:52.502Z,16.95
2023-01-19T08:20:48.400Z,14.70
2023-01-19T08:23:17.597Z,16.75
2023-01-19T08:25:45.746Z,17.90
2023-01-19T08:28:16.236Z,21.97
2023-01-19T08:30:45.451Z,27.27
2023-01-19T08:33:13.606Z,16.37
2023-01-19T08:35:43.638Z,21.57
2023-01-19T08:38:11.363Z,19.77
2023-01-19T08:40:41.439Z,22.25
2023-01-19T08:43:13.414Z,15.93
2023-01-19T08:45:48.259Z,15.08
2023-01-19T08:48:19.401Z,15.58
2023-01-19T08:50:49.788Z,15.63
2023-01-19T08:53:20.415Z,20.57
2023-01-19T08:55:48.357Z,24.60
2023-01-19T08:58:16.915Z,25.68
2023-01-19T09:00:44.435Z,25.55
2023-01-19T09:03:13.278Z,29.50
2023-01-19T09:05:41.360Z,22.70
2023-01-19T09:08:12.700Z,18.52
2023-01-19T09:10:47.540Z,20.70
2023-01-19T09:13:15.605Z,20.57
2023-01-19T09:15:44.988Z,21.87
2023-01-19T09:18:17.154Z,23.45
2023-01-19T09:20:48.032Z,23.32
2023-01-19T09:23:19.629Z,22.17
2023-01-19T09:25:48.262Z,29.25
2023-01-19T09:28:17.388Z,30.00
2023-01-19T09:30:46.261Z,22.45
2023-01-19T09:33:16.822Z,28.70
2023-01-19T09:35:47.188Z,31.70
2023-01-19T09:38:17.321Z,20.72
2023-01-19T09:40:53.281Z,18.60
2023-01-19T09:43:40.988Z,24.45
2023-01-19T09:46:26.428Z,22.35
2023-01-19T09:48:57.896Z,24.43
2023-01-19T09:51:29.058Z,21.68
2023-01-19T09:54:19.280Z,24.20
2023-01-19T09:56:51.324Z,23.30
2023-01-19T09:59:31.710Z,21.65
2023-01-19T10:02:17.093Z,16.60
2023-01-19T10:05:01.929Z,19.10
2023-01-19T10:07:34.943Z,20.90
2023-01-19T10:10:10.798Z,23.77
2023-01-19T10:12:51.194Z,18.30
2023-01-19T10:15:26.695Z,18.77
2023-01-19T10:18:26.489Z,22.05
2023-01-19T10:21:14.057Z,19.42
2023-01-19T10:23:54.193Z,26.62
2023-01-19T10:26:35.770Z,27.93
2023-01-19T10:29:08.003Z,22.60
2023-01-19T10:31:38.454Z,26.73
2023-01-19T10:34:06.243Z,21.55
2023-01-19T10:36:37.831Z,20.97
2023-01-19T10:39:07.079Z,22.98
2023-01-19T10:41:45.794Z,21.70
2023-01-19T10:44:24.202Z,22.93
2023-01-19T10:46:55.367Z,18.57
2023-01-19T10:49:48.769Z,20.48
2023-01-19T10:52:43.274Z,29.05
2023-01-19T10:55:20.044Z,20.25
2023-01-19T10:57:52.601Z,22.35
2023-01-19T11:00:44.846Z,22.00
2023-01-19T11:03:41.095Z,23.45
2023-01-19T11:06:25.921Z,22.93
2023-01-19T11:09:21.744Z,35.60
2023-01-19T11:11:57.692Z,23.40
2023-01-19T11:14:34.469Z,26.57
2023-01-19T11:17:05.895Z,25.62
2023-01-19T11:19:48.222Z,19.82
2023-01-19T11:22:26.638Z,20.48
2023-01-19T11:25:07.568Z,18.45
2023-01-19T11:27:38.670Z,29.75
2023-01-19T11:30:37.146Z,22.75
2023-01-19T11:33:13.180Z,30.12
2023-01-19T11:35:41.459Z,18.45
2023-01-19T11:38:22.916Z,18.87
2023-01-19T11:40:54.590Z,22.20
2023-01-19T11:43:27.682Z,27.70
2023-01-19T11:45:58.121Z,25.97
2023-01-19T11:48:33.558Z,21.77
2023-01-19T11:51:05.540Z,27.00
2023-01-19T11:53:35.582Z,22.35
2023-01-19T11:56:10.552Z,21.65
2023-01-19T11:58:46.117Z,45.90
2023-01-19T12:01:25.344Z,29.75
2023-01-19T12:04:19.774Z,23.57
2023-01-19T12:06:52.656Z,20.55
2023-01-19T12:09:25.737Z,25.25
2023-01-19T12:12:10.215Z,22.10
2023-01-19T12:14:49.156Z,23.25
2023-01-19T12:17:28.495Z,27.67
2023-01-19T12:20:30.493Z,24.27
2023-01-19T12:23:09.438Z,23.22
2023-01-19T12:26:04.655Z,20.02
2023-01-19T12:28:39.771Z,21.23
2023-01-19T12:31:07.891Z,25.20
2023-01-19T12:33:40.003Z,23.18
2023-01-19T12:36:36.658Z,33.88
2023-01-19T12:39:20.604Z,22.80
2023-01-19T12:41:53.013Z,25.08
2023-01-19T12:44:24.299Z,26.52
2023-01-19T12:47:05.689Z,32.13
2023-01-19T12:49:40.564Z,25.25
2023-01-19T12:52:34.620Z,29.20
2023-01-19T12:55:14.339Z,25.65
2023-01-19T12:58:01.615Z,30.62
2023-01-19T13:00:38.803Z,25.15
2023-01-19T13:03:24.049Z,27.27
2023-01-19T13:05:56.841Z,31.70
2023-01-19T13:08:30.052Z,25.62
2023-01-19T13:11:14.587Z,26.30
2023-01-19T13:13:59.692Z,28.57
2023-01-19T13:16:33.601Z,28.10
2023-01-19T13:19:09.571Z,11.22
2023-01-19T13:21:49.037Z,11.08
2023-01-19T13:24:22.182Z,8.80
2023-01-19T13:26:56.875Z,10.30
2023-01-19T13:29:40.240Z,8.73
2023-01-19T13:32:18.798Z,8.58
2023-01-19T13:34:51.888Z,11.28
2023-01-19T13:37:23.683Z,12.55
2023-01-19T13:39:53.938Z,9.70
2023-01-19T13:42:38.917Z,13.28
2023-01-19T13:45:23.970Z,8.60
2023-01-19T13:47:53.399Z,11.15
2023-01-19T13:50:29.231Z,9.38
2023-01-19T13:52:58.414Z,9.38
2023-01-19T13:55:28.956Z,6.22
2023-01-19T13:57:57.532Z,6.30
2023-01-19T14:00:28.832Z,11.95
2023-01-19T14:03:17.992Z,11.20
2023-01-19T14:05:46.197Z,9.15
2023-01-19T14:08:17.290Z,7.37
2023-01-19T14:11:01.769Z,6.00
2023-01-19T14:13:33.149Z,8.03
2023-01-19T14:16:16.695Z,5.80
2023-01-19T14:18:44.314Z,7.25
2023-01-19T14:21:14.542Z,7.92
2023-01-19T14:23:56.840Z,5.65
2023-01-19T14:26:53.349Z,8.35
2023-01-19T14:29:32.756Z,7.55
2023-01-19T14:32:06.161Z,5.45
2023-01-19T14:34:47.682Z,6.62
2023-01-19T14:37:28.410Z,6.15
2023-01-19T14:40:17.993Z,7.28
2023-01-19T14:42:56.752Z,6.58
2023-01-19T14:45:37.622Z,7.90
2023-01-19T14:48:18.051Z,8.40
2023-01-19T14:51:01.892Z,12.13
2023-01-19T14:53:23.318Z,12.23
2023-01-19T14:56:01.817Z,10.95
2023-01-19T14:58:32.802Z,12.90
2023-01-19T15:01:00.943Z,10.05
2023-01-19T15:03:44.840Z,8.18
2023-01-19T15:06:02.980Z,8.45
2023-01-19T15:08:33.143Z,9.33
2023-01-19T15:11:11.503Z,12.00
2023-01-19T15:13:41.234Z,17.30
2023-01-19T15:16:09.346Z,5.45
2023-01-19T15:18:38.137Z,7.70
2023-01-19T15:21:05.919Z,7.00
2023-01-19T15:23:33.616Z,8.78
2023-01-19T15:26:04.259Z,6.10
2023-01-19T15:28:32.804Z,5.83
2023-01-19T15:31:00.707Z,5.28
2023-01-19T15:33:30.166Z,6.85
2023-01-19T15:35:58.273Z,4.42
2023-01-19T15:38:27.316Z,7.25
2023-01-19T15:40:54.833Z,5.45
2023-01-19T15:43:23.515Z,6.22
2023-01-19T15:46:02.038Z,4.97
2023-01-19T15:48:29.586Z,3.60
2023-01-19T15:50:57.405Z,6.75
2023-01-19T15:53:26.617Z,7.42
2023-01-19T15:55:56.197Z,9.03
2023-01-19T15:58:24.978Z,7.05
2023-01-19T16:00:56.461Z,9.15
2023-01-19T16:03:25.420Z,9.60
2023-01-19T16:05:53.186Z,6.65
2023-01-19T16:08:21.513Z,5.20
2023-01-19T16:10:49.035Z,6.03
2023-01-19T16:13:16.766Z,5.67
2023-01-19T16:15:44.498Z,4.33
2023-01-19T16:18:12.037Z,4.28
2023-01-19T16:20:39.553Z,4.33
2023-01-19T16:23:15.651Z,4.62
2023-01-19T16:25:37.371Z,3.50
2023-01-19T16:28:05.336Z,2.33
2023-01-19T16:30:33.064Z,3.87
2023-01-19T16:33:00.782Z,3.20
2023-01-19T16:35:28.576Z,3.35
2023-01-19T16:37:56.124Z,4.28
2023-01-19T16:40:23.840Z,5.47
2023-01-19T16:42:51.686Z,7.28
2023-01-19T16:45:19.295Z,6.30
2023-01-19T16:47:48.904Z,5.92
2023-01-19T16:50:16.555Z,5.70
2023-01-19T16:52:44.575Z,7.05
2023-01-19T16:55:12.533Z,7.17
2023-01-19T16:57:40.148Z,8.55
2023-01-19T17:00:11.126Z,9.18
2023-01-19T17:02:38.855Z,10.70
2023-01-19T17:05:07.595Z,5.03
2023-01-19T17:07:35.257Z,3.20
2023-01-19T17:10:03.219Z,8.03
2023-01-19T17:12:32.344Z,7.92
2023-01-19T17:15:00.049Z,2.42
2023-01-19T17:17:27.512Z,3.52
2023-01-19T17:19:55.196Z,3.42
2023-01-19T17:22:22.871Z,6.30
2023-01-19T17:24:50.719Z,3.12
2023-01-19T17:27:18.383Z,5.97
2023-01-19T17:29:46.855Z,11.05
2023-01-19T17:32:15.608Z,6.80
2023-01-19T17:34:43.122Z,9.00
2023-01-19T17:37:10.476Z,3.60
2023-01-19T17:39:38.293Z,7.75
2023-01-19T17:42:05.931Z,5.33
2023-01-19T17:44:34.045Z,6.10
2023-01-19T17:47:01.740Z,4.53
2023-01-19T17:49:29.597Z,3.65
2023-01-19T17:51:57.214Z,4.10
2023-01-19T17:54:25.119Z,4.60
2023-01-19T17:56:53.080Z,6.03
2023-01-19T17:59:20.557Z,3.85
2023-01-19T18:01:48.189Z,9.73
2023-01-19T18:04:17.797Z,7.12
2023-01-19T18:06:46.612Z,70.85
2023-01-19T18:09:14.299Z,35.73
2023-01-19T18:11:42.553Z,31.33
2023-01-19T18:14:10.228Z,34.50
2023-01-19T18:16:38.022Z,3.22
2023-01-19T18:19:05.873Z,2.20
2023-01-19T18:21:33.544Z,7.28
2023-01-19T18:24:04.523Z,6.60
2023-01-19T18:26:34.090Z,3.85
2023-01-19T18:29:01.882Z,3.95
2023-01-19T18:31:29.638Z,7.45
2023-01-19T18:33:58.418Z,13.85
2023-01-19T18:36:26.269Z,79.85
2023-01-19T18:38:54.288Z,38.83
2023-01-19T18:41:22.746Z,18.87
2023-01-19T18:43:52.456Z,16.12
2023-01-19T18:46:20.635Z,15.78
2023-01-19T18:48:48.272Z,20.52
2023-01-19T18:51:16.968Z,17.60
2023-01-19T18:53:45.385Z,31.25
2023-01-19T18:56:15.292Z,39.65
2023-01-19T18:58:43.582Z,44.95
2023-01-19T19:01:25.099Z,50.48
2023-01-19T19:03:54.939Z,58.23
2023-01-19T19:06:25.845Z,49.65
2023-01-19T19:08:56.151Z,46.45
2023-01-19T19:11:25.288Z,38.10
2023-01-19T19:13:57.750Z,19.70
2023-01-19T19:16:26.241Z,25.20
2023-01-19T19:18:54.034Z,22.30
2023-01-19T19:21:24.815Z,22.98
2023-01-19T19:23:55.799Z,8.03
2023-01-19T19:26:27.415Z,9.90
2023-01-19T19:28:55.570Z,13.90
2023-01-19T19:31:25.603Z,16.15
2023-01-19T19:33:55.525Z,12.43
2023-01-19T19:36:25.243Z,14.18
2023-01-19T19:38:53.346Z,15.08
2023-01-19T19:41:26.378Z,15.45
2023-01-19T19:43:55.522Z,23.35
2023-01-19T19:46:23.800Z,18.87
2023-01-19T19:48:52.382Z,32.67
2023-01-19T19:51:27.556Z,129.03
2023-01-19T19:53:59.929Z,108.17
2023-01-19T19:56:31.105Z,152.12
2023-01-19T19:58:59.599Z,164.20
2023-01-19T20:01:32.616Z,59.53
2023-01-19T20:04:07.073Z,45.45
2023-01-19T20:06:39.371Z,165.73
2023-01-19T20:09:12.045Z,98.17
2023-01-19T20:11:40.755Z,83.83
2023-01-19T20:14:10.673Z,70.10
2023-01-19T20:16:38.915Z,52.08
2023-01-19T20:19:06.952Z,44.63
2023-01-19T20:21:37.761Z,52.62
2023-01-19T20:24:13.622Z,26.68
2023-01-19T20:26:45.743Z,15.95
2023-01-19T20:29:13.453Z,26.12
2023-01-19T20:31:48.213Z,33.28
2023-01-19T20:34:20.008Z,46.70
2023-01-19T20:36:49.851Z,25.68
2023-01-19T20:39:18.552Z,29.15
2023-01-19T20:41:48.089Z,30.57
2023-01-19T20:44:21.618Z,33.15
2023-01-19T20:46:50.676Z,28.42
2023-01-19T20:49:18.458Z,32.55
2023-01-19T20:51:46.523Z,27.55
2023-01-19T20:54:17.205Z,17.55
2023-01-19T20:56:44.993Z,14.05
2023-01-19T20:59:13.349Z,15.45
2023-01-19T21:01:41.897Z,12.35
2023-01-19T21:04:10.648Z,24.02
2023-01-19T21:06:40.838Z,17.75
2023-01-19T21:09:10.542Z,20.77
2023-01-19T21:11:39.141Z,28.17
2023-01-19T21:14:07.525Z,24.45
2023-01-19T21:16:35.420Z,29.18
2023-01-19T21:19:04.045Z,31.93
2023-01-19T21:21:32.218Z,19.90
2023-01-19T21:24:01.634Z,11.95
2023-01-19T21:26:30.444Z,10.45
2023-01-19T21:28:59.273Z,12.50
2023-01-19T21:31:28.277Z,11.57
2023-01-19T21:33:57.670Z,24.12
2023-01-19T21:36:26.037Z,23.98
2023-01-19T21:38:55.717Z,24.27
2023-01-19T21:41:23.535Z,37.60
2023-01-19T21:43:51.241Z,49.73
2023-01-19T21:46:22.039Z,45.92
2023-01-19T21:48:49.934Z,39.78
2023-01-19T21:51:17.564Z,34.18
2023-01-19T21:53:46.178Z,18.70
2023-01-19T21:56:14.874Z,25.17
2023-01-19T21:58:42.767Z,20.52
2023-01-19T22:01:12.117Z,13.95
2023-01-19T22:03:41.463Z,13.95
2023-01-19T22:06:12.929Z,8.50
2023-01-19T22:08:41.501Z,8.05
2023-01-19T22:11:11.825Z,12.73
2023-01-19T22:13:41.030Z,16.87
2023-01-19T22:16:13.513Z,18.57
2023-01-19T22:18:44.264Z,15.20
2023-01-19T22:21:21.482Z,14.35
2023-01-19T22:23:52.641Z,12.23
2023-01-19T22:26:20.969Z,15.95
2023-01-19T22:28:58.621Z,10.48
2023-01-19T22:31:28.473Z,8.85
2023-01-19T22:33:56.678Z,10.40
2023-01-19T22:36:30.418Z,10.28
2023-01-19T22:39:00.617Z,10.65
2023-01-19T22:41:44.692Z,11.00
2023-01-19T22:46:44.733Z,9.53
2023-01-19T22:49:15.614Z,12.15
2023-01-19T22:51:44.391Z,12.68
2023-01-19T22:54:12.581Z,11.35
2023-01-19T22:56:41.190Z,9.20
2023-01-19T22:59:09.059Z,9.75
2023-01-19T23:01:44.125Z,14.40
2023-01-19T23:04:15.207Z,10.13
2023-01-19T23:06:45.788Z,9.85
2023-01-19T23:09:14.447Z,10.72
2023-01-19T23:11:47.204Z,13.68
2023-01-19T23:14:18.891Z,16.20
2023-01-19T23:16:46.669Z,12.40
2023-01-19T23:19:16.613Z,8.83
2023-01-19T23:21:45.260Z,5.22
2023-01-19T23:24:12.947Z,7.08
2023-01-19T23:26:40.502Z,6.75
2023-01-19T23:29:12.347Z,6.33
2023-01-19T23:31:43.467Z,9.78
2023-01-19T23:34:12.786Z,6.97
2023-01-19T23:36:42.204Z,6.40
2023-01-19T23:39:20.144Z,7.35
2023-01-19T23:41:48.262Z,9.53
2023-01-19T23:44:16.703Z,6.33
2023-01-19T23:46:45.287Z,10.15
2023-01-19T23:49:13.572Z,5.78
2023-01-19T23:51:42.107Z,9.60
2023-01-19T23:54:09.680Z,9.08
2023-01-19T23:56:37.775Z,13.95
2023-01-19T23:59:09.774Z,19.27
